Huntsville Municipal Airport
KUTS : now visible

Airfield :











YOU CAN JOIN US ON...

 
LOGIN :

Register | Disclaimer

   EN    FR    IT 

 









Legend :    VFR   Marginal VFR   IFR   Intensive IFR   Very Intensive IFR
Visi :
Ceiling :
>= 8 km
>= 3000ft
5 to 8 km
1000 to 3000 ft
1500m to 5 km
500 to 1000 ft
800 to 1500m
200 to 500 ft
< 800m
< 200 ft
Symbols :   Thunderstorms  Fog  Heavy snow  Heavy precipitations  Wind > 20 kt







- Airport Elevation : 363 ft


KUTS - Huntsville Municipal

CURRENT METAR :
  • 210053Z AUTO 15008G19KT 100V180 10SM FEW028 FEW033 28/22 A2971 RMK AO2 SLP055 T02830217

EXPIRED METARs :
  • 202353Z AUTO 15009G20KT 100V230 10SM FEW033 29/22 A2973 RMK AO2 SLP062 T02940217 10328 20294 58020
  • 202253Z AUTO 12007KT 10SM SCT038 SCT047 31/21 A2976 RMK AO2 SLP072 T03060211

TAF KUTS
Valid from the 21 at 00:00 until the 22 at 00:00 UTC


202320Z 2100/2124 15012KT P6SM FEW045
FM210400 16011G21KT P6SM SCT015
FM210900 16011G21KT P6SM BKN015
FM211200 16012G22KT P6SM BKN025
FM211600 19013G23KT P6SM VCSH BKN025 BKN035
PROB30 2118/2124 19011KT 4SM SHRA SCT015 BKN025
KZHU FIR / North America



MET'MAP, your aeronautical weather chart ! - Copyright ORBIFLY December 2007 - Disclaimer

ORBIFLY MET'MAP TEAM :

Programming & Development : Alexandra Zaïnal
Concept & Development : Baudouin d'Aumeries
Co-Development & Prog : Marc-Olivier Méhu
Technical & hardware support : Manuel Goepfert

Contact : metmap@orbifly.com




SOURCES & CREDITS :

   NOAA       Earth
Advisory